Time;durP1;ratioP1;P1;durP2;ratioP2;P2;SDS_P1;SDS_P2;PMS_P1;PMS_P2;Temp;Humidity;BMP_temperature;BMP_pressure;BME280_temperature;BME280_humidity;BME280_pressure;Samples;Min_cycle;Max_cycle;Signal;HPM_P1;HPM_P2
2021/06/20 00:01:49;;;;;;;9.57;1.65;;;;;;;;;;5016165;28;20113;-42
2021/06/20 00:04:16;;;;;;;12.90;1.95;;;;;;;;;;5030911;28;20037;-38
2021/06/20 00:06:48;;;;;;;8.43;1.88;;;;;;;;;;5034555;28;20029;-35
2021/06/20 00:09:16;;;;;;;11.93;2.17;;;;;;;;;;5034201;28;20072;-34
2021/06/20 00:11:44;;;;;;;15.52;2.55;;;;;;;;;;5035745;28;20028;-37
2021/06/20 00:14:13;;;;;;;15.43;2.20;;;;;;;;;;5030114;28;20022;-41
2021/06/20 00:16:40;;;;;;;22.08;2.40;;;;;;;;;;5032055;28;20021;-35
2021/06/20 00:19:08;;;;;;;9.88;2.25;;;;;;;;;;5031203;28;20032;-41
2021/06/20 00:21:36;;;;;;;12.73;1.83;;;;;;;;;;5033956;28;20025;-32
2021/06/20 00:24:04;;;;;;;9.75;2.05;;;;;;;;;;5033349;28;20022;-35
2021/06/20 00:26:31;;;;;;;12.32;2.15;;;;;;;;;;5034135;28;20078;-39
2021/06/20 00:28:58;;;;;;;8.68;2.70;;;;;;;;;;5032081;28;20018;-34
2021/06/20 00:31:25;;;;;;;9.80;2.45;;;;;;;;;;5033918;28;20028;-41
2021/06/20 00:33:52;;;;;;;10.52;2.42;;;;;;;;;;5031807;28;20473;-35
2021/06/20 00:36:19;;;;;;;9.95;2.70;;;;;;;;;;5032660;28;20034;-44
2021/06/20 00:38:46;;;;;;;14.45;3.00;;;;;;;;;;5031472;28;20126;-44
2021/06/20 00:41:13;;;;;;;15.55;3.53;;;;;;;;;;5015122;28;20036;-44
2021/06/20 00:43:40;;;;;;;19.50;4.50;;;;;;;;;;5032788;28;20086;-35
2021/06/20 00:46:09;;;;;;;19.48;5.68;;;;;;;;;;5038277;28;20035;-42
2021/06/20 00:48:36;;;;;;;19.45;5.20;;;;;;;;;;5045165;28;20551;-39
2021/06/20 00:51:04;;;;;;;19.05;5.20;;;;;;;;;;5045516;28;20494;-38
2021/06/20 00:53:31;;;;;;;23.23;5.97;;;;;;;;;;5043178;28;20477;-37
2021/06/20 00:55:59;;;;;;;25.35;6.18;;;;;;;;;;5031085;28;20457;-42
2021/06/20 00:58:26;;;;;;;19.92;5.78;;;;;;;;;;5038580;28;20027;-38
2021/06/20 01:00:54;;;;;;;20.35;6.03;;;;;;;;;;5045720;28;20023;-40
2021/06/20 01:03:21;;;;;;;21.85;6.15;;;;;;;;;;5043442;28;20071;-38
2021/06/20 01:05:48;;;;;;;25.13;6.75;;;;;;;;;;5046928;28;20101;-37
2021/06/20 01:08:16;;;;;;;27.67;7.22;;;;;;;;;;5044394;28;20031;-39
2021/06/20 01:10:43;;;;;;;21.05;6.20;;;;;;;;;;5029149;28;20124;-38
2021/06/20 01:13:12;;;;;;;21.58;5.70;;;;;;;;;;5043370;28;20033;-37
2021/06/20 01:15:40;;;;;;;44.65;7.00;;;;;;;;;;5044646;28;20094;-35
2021/06/20 01:18:07;;;;;;;27.80;6.95;;;;;;;;;;5043043;28;20112;-40
2021/06/20 01:20:34;;;;;;;23.50;6.45;;;;;;;;;;5037220;28;20025;-44
2021/06/20 01:23:01;;;;;;;23.77;6.10;;;;;;;;;;5031467;28;20018;-37
2021/06/20 01:25:29;;;;;;;23.83;5.93;;;;;;;;;;5029907;28;20045;-38
2021/06/20 01:28:09;;;;;;;20.27;6.15;;;;;;;;;;5030426;28;20057;-35
2021/06/20 01:30:37;;;;;;;27.40;6.00;;;;;;;;;;5032481;28;20389;-44
2021/06/20 01:33:06;;;;;;;23.88;6.20;;;;;;;;;;5033104;28;20029;-44
2021/06/20 01:35:33;;;;;;;26.25;6.15;;;;;;;;;;5031385;28;20545;-36
2021/06/20 01:38:00;;;;;;;17.73;4.75;;;;;;;;;;5029831;28;20033;-35
2021/06/20 01:40:27;;;;;;;26.70;6.00;;;;;;;;;;5034342;28;20069;-34
2021/06/20 01:42:55;;;;;;;23.73;5.43;;;;;;;;;;5031033;28;20025;-40
2021/06/20 01:45:22;;;;;;;17.73;4.90;;;;;;;;;;5015181;28;20385;-36
2021/06/20 01:47:50;;;;;;;28.77;5.50;;;;;;;;;;5030557;28;20049;-37
2021/06/20 01:50:18;;;;;;;19.33;4.95;;;;;;;;;;5029526;28;20404;-36
2021/06/20 01:52:46;;;;;;;22.35;5.40;;;;;;;;;;5022890;28;20041;-34
2021/06/20 01:55:14;;;;;;;15.18;4.25;;;;;;;;;;5032263;28;20045;-36
2021/06/20 01:57:42;;;;;;;14.77;4.40;;;;;;;;;;5033628;28;20025;-36
2021/06/20 02:00:10;;;;;;;14.18;4.22;;;;;;;;;;5032212;28;20057;-37
2021/06/20 02:02:38;;;;;;;16.77;4.13;;;;;;;;;;5030425;28;20020;-34
2021/06/20 02:05:05;;;;;;;18.88;5.15;;;;;;;;;;5030722;28;20466;-38
2021/06/20 02:07:35;;;;;;;13.55;4.20;;;;;;;;;;5032812;28;20029;-35
2021/06/20 02:10:02;;;;;;;19.25;4.78;;;;;;;;;;5017722;28;20155;-34
2021/06/20 02:12:29;;;;;;;18.30;4.40;;;;;;;;;;5032412;28;20040;-44
2021/06/20 02:14:56;;;;;;;14.40;4.55;;;;;;;;;;5029322;28;20021;-36
2021/06/20 02:17:24;;;;;;;22.33;4.38;;;;;;;;;;5032108;28;20420;-38
2021/06/20 02:19:52;;;;;;;17.85;4.40;;;;;;;;;;5032222;28;20021;-36
2021/06/20 02:22:19;;;;;;;13.57;3.97;;;;;;;;;;5030661;28;20100;-43
2021/06/20 02:24:46;;;;;;;17.42;4.05;;;;;;;;;;5048072;28;20021;-41
2021/06/20 02:27:14;;;;;;;13.80;3.72;;;;;;;;;;5043414;28;20128;-40
2021/06/20 02:29:45;;;;;;;18.30;3.67;;;;;;;;;;5045914;28;20017;-43
2021/06/20 02:32:13;;;;;;;12.68;3.30;;;;;;;;;;5047398;28;20116;-38
2021/06/20 02:34:40;;;;;;;14.43;5.07;;;;;;;;;;5031955;28;20025;-40
2021/06/20 02:37:08;;;;;;;28.08;4.25;;;;;;;;;;5034621;28;20131;-36
2021/06/20 02:39:36;;;;;;;13.00;3.65;;;;;;;;;;5045639;28;20060;-39
2021/06/20 02:42:03;;;;;;;19.80;4.15;;;;;;;;;;5028989;28;20030;-34
2021/06/20 02:44:30;;;;;;;14.07;3.42;;;;;;;;;;5047062;28;20449;-34
2021/06/20 02:46:59;;;;;;;29.05;4.00;;;;;;;;;;5051144;28;20455;-37
2021/06/20 02:49:26;;;;;;;15.88;3.80;;;;;;;;;;5054149;28;20376;-34
2021/06/20 02:51:53;;;;;;;12.65;3.88;;;;;;;;;;5051238;28;20032;-33
2021/06/20 02:54:21;;;;;;;17.15;3.30;;;;;;;;;;5048463;28;20488;-36
2021/06/20 02:56:48;;;;;;;22.25;4.10;;;;;;;;;;5040190;28;20528;-34
2021/06/20 02:59:15;;;;;;;14.05;3.35;;;;;;;;;;5034498;28;20021;-33
2021/06/20 03:01:42;;;;;;;13.13;3.35;;;;;;;;;;5034215;28;20480;-35
2021/06/20 03:04:13;;;;;;;14.57;3.20;;;;;;;;;;5034250;28;20049;-34
2021/06/20 03:06:40;;;;;;;11.23;3.03;;;;;;;;;;5034493;28;20052;-34
2021/06/20 03:09:07;;;;;;;19.25;3.70;;;;;;;;;;5033995;28;20087;-35
2021/06/20 03:11:41;;;;;;;15.05;3.13;;;;;;;;;;5034282;28;20033;-34
2021/06/20 03:14:08;;;;;;;22.40;3.50;;;;;;;;;;5034278;28;20024;-36
2021/06/20 03:16:36;;;;;;;21.23;3.92;;;;;;;;;;5031488;28;20021;-34
2021/06/20 03:19:03;;;;;;;13.40;3.42;;;;;;;;;;5064325;28;20043;-34
2021/06/20 03:21:30;;;;;;;18.90;2.80;;;;;;;;;;5073499;28;20027;-36
2021/06/20 03:23:57;;;;;;;19.98;3.53;;;;;;;;;;5073057;28;20483;-35
2021/06/20 03:26:24;;;;;;;21.77;3.25;;;;;;;;;;5072954;28;20074;-37
2021/06/20 03:28:51;;;;;;;15.02;3.05;;;;;;;;;;5068941;28;20067;-38
2021/06/20 03:31:18;;;;;;;12.73;2.95;;;;;;;;;;5052806;28;20025;-36
2021/06/20 03:33:46;;;;;;;14.40;2.97;;;;;;;;;;5053285;28;20507;-35
2021/06/20 03:36:13;;;;;;;10.40;2.55;;;;;;;;;;5052715;28;20017;-38
2021/06/20 03:38:40;;;;;;;16.40;2.50;;;;;;;;;;5053608;28;20025;-37
2021/06/20 03:41:11;;;;;;;19.25;3.30;;;;;;;;;;5053219;28;20018;-35
2021/06/20 03:43:39;;;;;;;13.68;2.83;;;;;;;;;;5053572;28;20048;-36
2021/06/20 03:46:06;;;;;;;12.43;2.80;;;;;;;;;;5052896;28;20036;-35
2021/06/20 03:48:33;;;;;;;12.38;2.83;;;;;;;;;;5052654;28;20499;-36
2021/06/20 03:51:00;;;;;;;9.77;2.28;;;;;;;;;;5052887;28;20043;-34
2021/06/20 03:53:27;;;;;;;14.35;2.92;;;;;;;;;;5052585;28;20547;-36
2021/06/20 03:55:56;;;;;;;17.85;3.20;;;;;;;;;;5052980;28;20092;-35
2021/06/20 03:58:23;;;;;;;8.82;2.83;;;;;;;;;;5052819;28;20021;-36
2021/06/20 04:00:50;;;;;;;9.93;2.92;;;;;;;;;;5053014;28;20032;-37
2021/06/20 04:03:17;;;;;;;10.68;2.72;;;;;;;;;;5052607;28;20025;-35
2021/06/20 04:05:44;;;;;;;7.82;2.53;;;;;;;;;;5052970;28;20543;-38
2021/06/20 04:08:11;;;;;;;9.85;3.28;;;;;;;;;;5052763;28;20028;-35
2021/06/20 04:10:38;;;;;;;11.60;2.80;;;;;;;;;;5052690;28;20029;-36
2021/06/20 04:13:06;;;;;;;10.65;2.10;;;;;;;;;;5052979;28;20396;-34
2021/06/20 04:15:33;;;;;;;7.53;2.10;;;;;;;;;;5052214;28;20378;-36
2021/06/20 04:18:00;;;;;;;9.32;2.28;;;;;;;;;;5052897;28;20112;-35
2021/06/20 04:20:27;;;;;;;7.38;2.28;;;;;;;;;;5052090;28;20373;-38
2021/06/20 04:22:54;;;;;;;7.68;2.70;;;;;;;;;;5052829;28;20029;-35
2021/06/20 04:25:21;;;;;;;4.65;1.73;;;;;;;;;;5052119;28;20753;-37
2021/06/20 04:27:49;;;;;;;9.95;2.33;;;;;;;;;;5052746;28;20033;-34
2021/06/20 04:30:17;;;;;;;9.45;2.20;;;;;;;;;;5052056;28;20113;-37
2021/06/20 04:32:45;;;;;;;6.80;1.95;;;;;;;;;;5052397;28;20032;-36
2021/06/20 04:35:12;;;;;;;10.55;2.17;;;;;;;;;;5051898;28;20384;-38
2021/06/20 04:37:40;;;;;;;8.63;2.22;;;;;;;;;;5052429;28;20024;-37
2021/06/20 04:40:10;;;;;;;6.03;1.77;;;;;;;;;;5052445;28;20504;-35
2021/06/20 04:42:38;;;;;;;10.73;1.90;;;;;;;;;;5051837;28;20071;-36
2021/06/20 04:45:06;;;;;;;7.95;1.90;;;;;;;;;;5052521;28;20104;-35
2021/06/20 04:47:33;;;;;;;10.23;2.20;;;;;;;;;;5051304;28;20048;-35
2021/06/20 04:50:02;;;;;;;5.93;1.88;;;;;;;;;;5052145;28;20027;-35
2021/06/20 04:52:29;;;;;;;9.77;2.30;;;;;;;;;;5051775;28;20033;-35
2021/06/20 04:54:56;;;;;;;6.00;2.00;;;;;;;;;;5034385;28;20028;-35
2021/06/20 04:57:23;;;;;;;6.07;1.90;;;;;;;;;;5051489;28;20104;-37
2021/06/20 04:59:54;;;;;;;6.20;1.95;;;;;;;;;;5051519;28;20074;-35
2021/06/20 05:02:22;;;;;;;6.72;1.80;;;;;;;;;;5051326;28;20025;-35
2021/06/20 05:04:49;;;;;;;8.38;2.40;;;;;;;;;;5052288;28;20441;-35
2021/06/20 05:07:17;;;;;;;4.53;1.80;;;;;;;;;;5051510;28;20036;-34
2021/06/20 05:09:44;;;;;;;5.20;2.00;;;;;;;;;;5052040;28;20457;-36
2021/06/20 05:12:11;;;;;;;4.22;1.67;;;;;;;;;;5051847;28;20423;-37
2021/06/20 05:14:45;;;;;;;5.15;1.73;;;;;;;;;;5051783;28;20078;-35
2021/06/20 05:17:13;;;;;;;4.95;2.20;;;;;;;;;;5051748;28;20025;-34
2021/06/20 05:19:40;;;;;;;5.50;1.63;;;;;;;;;;5051457;28;20037;-36
2021/06/20 05:22:09;;;;;;;5.65;1.58;;;;;;;;;;5051750;28;20028;-34
2021/06/20 05:24:36;;;;;;;4.68;1.60;;;;;;;;;;5051278;28;20380;-37
2021/06/20 05:27:03;;;;;;;6.43;1.90;;;;;;;;;;5051617;28;20143;-36
2021/06/20 05:29:31;;;;;;;3.47;1.60;;;;;;;;;;5051276;28;20021;-36
2021/06/20 05:31:58;;;;;;;4.85;1.80;;;;;;;;;;5051711;28;20032;-36
2021/06/20 05:34:25;;;;;;;4.45;1.55;;;;;;;;;;5051297;28;20017;-35
2021/06/20 05:36:52;;;;;;;7.10;1.77;;;;;;;;;;5051484;28;20021;-35
2021/06/20 05:39:19;;;;;;;5.47;1.52;;;;;;;;;;5051349;28;20028;-35
2021/06/20 05:41:46;;;;;;;5.25;1.88;;;;;;;;;;5051652;28;20021;-36
2021/06/20 05:44:13;;;;;;;4.03;1.70;;;;;;;;;;5051442;28;20021;-38
2021/06/20 05:46:40;;;;;;;3.00;1.50;;;;;;;;;;5050894;28;20033;-36
2021/06/20 05:49:07;;;;;;;2.83;1.33;;;;;;;;;;5051777;28;20025;-35
2021/06/20 05:51:34;;;;;;;2.72;1.30;;;;;;;;;;5050949;28;20048;-35
2021/06/20 05:54:01;;;;;;;3.33;1.35;;;;;;;;;;5051861;28;20071;-34
2021/06/20 05:56:29;;;;;;;3.47;1.30;;;;;;;;;;5050847;28;20480;-37
2021/06/20 05:58:56;;;;;;;4.05;1.40;;;;;;;;;;5051445;28;20108;-39
2021/06/20 06:01:23;;;;;;;4.32;1.63;;;;;;;;;;5051050;28;20075;-37
2021/06/20 06:03:50;;;;;;;3.00;1.30;;;;;;;;;;5051543;28;20036;-36
2021/06/20 06:06:17;;;;;;;6.65;1.60;;;;;;;;;;5050807;28;20052;-35
2021/06/20 06:08:44;;;;;;;2.55;1.20;;;;;;;;;;5051541;28;20072;-36
2021/06/20 06:11:11;;;;;;;3.97;1.33;;;;;;;;;;5053050;28;20036;-35
2021/06/20 06:13:38;;;;;;;5.20;1.38;;;;;;;;;;5054627;28;20143;-36
2021/06/20 06:16:05;;;;;;;3.67;1.15;;;;;;;;;;5055276;28;20090;-34
2021/06/20 06:18:32;;;;;;;2.92;1.13;;;;;;;;;;5054632;28;20059;-35
2021/06/20 06:21:00;;;;;;;4.03;1.23;;;;;;;;;;5055021;28;20021;-36
2021/06/20 06:23:27;;;;;;;4.22;1.40;;;;;;;;;;5054661;28;20029;-36
2021/06/20 06:25:54;;;;;;;4.03;1.60;;;;;;;;;;5055212;28;20422;-36
2021/06/20 06:28:21;;;;;;;3.63;1.27;;;;;;;;;;5054096;28;20078;-37
2021/06/20 06:30:48;;;;;;;5.60;1.15;;;;;;;;;;5054740;28;20025;-37
2021/06/20 06:33:15;;;;;;;3.08;1.10;;;;;;;;;;5054430;28;20485;-36
2021/06/20 06:35:42;;;;;;;2.63;1.25;;;;;;;;;;5054806;28;20029;-36
2021/06/20 06:38:09;;;;;;;2.15;1.10;;;;;;;;;;5054000;28;20013;-36
2021/06/20 06:40:36;;;;;;;3.20;0.90;;;;;;;;;;5054806;28;20184;-36
2021/06/20 06:43:03;;;;;;;3.25;1.15;;;;;;;;;;5054496;28;20155;-36
2021/06/20 06:45:30;;;;;;;2.90;1.20;;;;;;;;;;5054367;28;20507;-36
2021/06/20 06:47:57;;;;;;;2.53;0.93;;;;;;;;;;5054218;28;20049;-35
2021/06/20 06:50:24;;;;;;;3.58;1.15;;;;;;;;;;5053685;28;20017;-36
2021/06/20 06:52:51;;;;;;;2.10;0.93;;;;;;;;;;5054302;28;20389;-35
2021/06/20 06:55:19;;;;;;;2.72;1.02;;;;;;;;;;5053839;28;20021;-35
2021/06/20 06:57:47;;;;;;;4.95;1.25;;;;;;;;;;5054178;28;20049;-35
2021/06/20 07:00:14;;;;;;;3.05;1.17;;;;;;;;;;5053745;28;20033;-35
2021/06/20 07:02:41;;;;;;;2.95;1.00;;;;;;;;;;5054420;28;20029;-36
2021/06/20 07:05:08;;;;;;;5.15;1.50;;;;;;;;;;5053492;28;20113;-34
2021/06/20 07:07:35;;;;;;;3.08;1.20;;;;;;;;;;5054137;28;20063;-35
2021/06/20 07:10:03;;;;;;;2.85;1.00;;;;;;;;;;5053539;28;20112;-35
2021/06/20 07:12:34;;;;;;;5.00;1.20;;;;;;;;;;5053972;28;20037;-36
2021/06/20 07:15:05;;;;;;;4.20;1.00;;;;;;;;;;5053922;28;20388;-35
2021/06/20 07:17:32;;;;;;;2.13;0.85;;;;;;;;;;5053701;28;20029;-35
2021/06/20 07:19:59;;;;;;;2.08;1.02;;;;;;;;;;5053780;28;20028;-35
2021/06/20 07:22:26;;;;;;;2.70;1.13;;;;;;;;;;5052563;28;20515;-36
2021/06/20 07:24:53;;;;;;;2.47;1.10;;;;;;;;;;5053934;28;20032;-36
2021/06/20 07:27:21;;;;;;;4.72;1.17;;;;;;;;;;5053385;28;20473;-35
2021/06/20 07:29:48;;;;;;;2.88;1.10;;;;;;;;;;5053536;28;20013;-35
2021/06/20 07:32:16;;;;;;;3.70;0.95;;;;;;;;;;5052977;28;20033;-37
2021/06/20 07:34:43;;;;;;;3.28;1.02;;;;;;;;;;5053732;28;20027;-34
2021/06/20 07:37:10;;;;;;;1.35;0.90;;;;;;;;;;5053106;28;20057;-34
2021/06/20 07:39:37;;;;;;;3.30;1.05;;;;;;;;;;5053463;28;20028;-34
2021/06/20 07:42:04;;;;;;;1.92;0.80;;;;;;;;;;5053020;28;20025;-35
2021/06/20 07:44:31;;;;;;;1.65;0.88;;;;;;;;;;5053142;28;20423;-37
2021/06/20 07:46:58;;;;;;;4.20;1.42;;;;;;;;;;5053272;28;20052;-38
2021/06/20 07:49:25;;;;;;;4.45;1.15;;;;;;;;;;5052932;28;20096;-35
2021/06/20 07:51:52;;;;;;;1.73;0.90;;;;;;;;;;5053382;28;20056;-36
2021/06/20 07:54:19;;;;;;;3.65;0.90;;;;;;;;;;5052716;28;20035;-35
2021/06/20 07:56:46;;;;;;;2.97;1.10;;;;;;;;;;5053310;28;20021;-35
2021/06/20 07:59:13;;;;;;;2.22;1.00;;;;;;;;;;5052506;28;20451;-35
2021/06/20 08:01:42;;;;;;;3.28;0.90;;;;;;;;;;5053138;28;20544;-34
2021/06/20 08:04:09;;;;;;;2.92;1.25;;;;;;;;;;5052847;28;20056;-36
2021/06/20 08:06:36;;;;;;;2.33;0.93;;;;;;;;;;5053146;28;20510;-35
2021/06/20 08:09:03;;;;;;;1.40;0.85;;;;;;;;;;5052836;28;20025;-34
2021/06/20 08:11:33;;;;;;;3.85;0.90;;;;;;;;;;5052391;28;20124;-34
2021/06/20 08:14:00;;;;;;;2.22;0.82;;;;;;;;;;5035101;28;20385;-36
2021/06/20 08:16:27;;;;;;;1.58;0.82;;;;;;;;;;5052047;28;20078;-34
2021/06/20 08:18:55;;;;;;;1.33;0.95;;;;;;;;;;5052821;28;20013;-34
2021/06/20 08:21:22;;;;;;;3.25;0.90;;;;;;;;;;5052338;28;20528;-35
2021/06/20 08:23:49;;;;;;;1.75;0.85;;;;;;;;;;5052521;28;20029;-38
2021/06/20 08:26:17;;;;;;;5.07;1.00;;;;;;;;;;5052394;28;20032;-35
2021/06/20 08:28:44;;;;;;;2.15;0.82;;;;;;;;;;5052719;28;20064;-35
2021/06/20 08:31:11;;;;;;;1.85;0.90;;;;;;;;;;5052085;28;20392;-33
2021/06/20 08:33:38;;;;;;;1.92;0.88;;;;;;;;;;5052210;28;20017;-36
2021/06/20 08:36:06;;;;;;;1.77;0.85;;;;;;;;;;5051851;28;20029;-34
2021/06/20 08:38:33;;;;;;;2.17;0.77;;;;;;;;;;5051811;28;20021;-36
2021/06/20 08:41:00;;;;;;;2.20;1.00;;;;;;;;;;5052482;28;20104;-37
2021/06/20 08:43:27;;;;;;;1.40;0.70;;;;;;;;;;5051930;28;20029;-35
2021/06/20 08:45:55;;;;;;;2.97;0.93;;;;;;;;;;5052522;28;20074;-35
2021/06/20 08:48:22;;;;;;;3.20;0.73;;;;;;;;;;5051848;28;20049;-34
2021/06/20 08:50:50;;;;;;;2.58;0.75;;;;;;;;;;5051963;28;20021;-35
2021/06/20 08:53:18;;;;;;;2.30;1.02;;;;;;;;;;5051587;28;20033;-34
2021/06/20 08:55:45;;;;;;;1.83;0.90;;;;;;;;;;5052508;28;20025;-35
2021/06/20 08:58:26;;;;;;;1.95;0.88;;;;;;;;;;5051959;28;20029;-34
2021/06/20 09:00:55;;;;;;;1.42;0.80;;;;;;;;;;5051609;28;20033;-36
2021/06/20 09:03:22;;;;;;;1.63;0.60;;;;;;;;;;5051848;28;20042;-35
2021/06/20 09:06:06;;;;;;;1.90;0.68;;;;;;;;;;5033513;28;20028;-34
2021/06/20 09:08:33;;;;;;;1.98;0.80;;;;;;;;;;5052015;28;20029;-35
2021/06/20 09:11:00;;;;;;;2.38;1.30;;;;;;;;;;5033379;28;20029;-35
2021/06/20 09:13:37;;;;;;;1.13;0.80;;;;;;;;;;5051765;28;20029;-38
2021/06/20 09:16:06;;;;;;;1.33;0.70;;;;;;;;;;5051524;28;20017;-34
2021/06/20 09:18:35;;;;;;;1.90;1.00;;;;;;;;;;5051640;28;20032;-34
2021/06/20 09:21:09;;;;;;;1.48;0.90;;;;;;;;;;5051227;28;20021;-35
2021/06/20 09:23:40;;;;;;;1.02;0.60;;;;;;;;;;5051868;28;20096;-34
2021/06/20 09:26:07;;;;;;;1.08;0.90;;;;;;;;;;5051529;28;20376;-34
2021/06/20 09:28:36;;;;;;;1.98;0.80;;;;;;;;;;5034247;28;20015;-33
2021/06/20 09:31:05;;;;;;;1.35;0.90;;;;;;;;;;5050824;28;20292;-34
2021/06/20 09:33:33;;;;;;;1.92;0.77;;;;;;;;;;5051571;28;20060;-32
2021/06/20 09:36:01;;;;;;;0.93;0.55;;;;;;;;;;5051475;28;20486;-38
2021/06/20 09:38:32;;;;;;;1.55;0.70;;;;;;;;;;5051483;28;20036;-36
2021/06/20 09:41:13;;;;;;;1.43;0.90;;;;;;;;;;5051433;28;20025;-38
2021/06/20 09:43:50;;;;;;;2.40;0.90;;;;;;;;;;5051258;28;20039;-40
2021/06/20 09:46:17;;;;;;;1.73;0.90;;;;;;;;;;5053620;28;20029;-41
2021/06/20 09:48:45;;;;;;;2.08;0.70;;;;;;;;;;5055236;28;20049;-42
2021/06/20 09:51:15;;;;;;;1.67;0.85;;;;;;;;;;5055415;28;20061;-39
2021/06/20 09:53:43;;;;;;;1.45;0.70;;;;;;;;;;5055307;28;20028;-35
2021/06/20 09:56:23;;;;;;;1.48;0.73;;;;;;;;;;5055522;28;20049;-42
2021/06/20 09:59:00;;;;;;;1.67;0.75;;;;;;;;;;5054991;28;20094;-37
2021/06/20 10:01:28;;;;;;;1.30;0.90;;;;;;;;;;5055011;28;20028;-40
2021/06/20 10:03:55;;;;;;;1.83;0.82;;;;;;;;;;5054806;28;20099;-40
2021/06/20 10:06:23;;;;;;;1.60;0.60;;;;;;;;;;5055197;28;20021;-41
2021/06/20 10:08:50;;;;;;;2.17;1.00;;;;;;;;;;5054805;28;20013;-41
2021/06/20 10:11:17;;;;;;;1.42;0.70;;;;;;;;;;5055009;28;20511;-41
2021/06/20 10:13:45;;;;;;;1.95;0.85;;;;;;;;;;5054798;28;20096;-37
2021/06/20 10:16:12;;;;;;;2.80;0.80;;;;;;;;;;5054961;28;20389;-40
2021/06/20 10:18:41;;;;;;;1.95;0.88;;;;;;;;;;5040663;28;20055;-40
2021/06/20 10:21:08;;;;;;;2.33;1.05;;;;;;;;;;5074201;28;20384;-35
2021/06/20 10:23:42;;;;;;;4.78;0.90;;;;;;;;;;5075015;28;20052;-40
2021/06/20 10:26:09;;;;;;;1.75;0.80;;;;;;;;;;5074464;28;20027;-38
2021/06/20 10:28:36;;;;;;;1.45;0.85;;;;;;;;;;5074616;28;20100;-41
2021/06/20 10:31:09;;;;;;;1.55;0.90;;;;;;;;;;5074255;28;20024;-40
2021/06/20 10:33:37;;;;;;;;;;;;;;;;;;5075345;28;20029;-42
2021/06/20 10:36:10;;;;;;;2.55;0.98;;;;;;;;;;5074161;28;19909;-40
2021/06/20 10:38:41;;;;;;;1.20;0.80;;;;;;;;;;5074765;28;20101;-38
2021/06/20 10:41:09;;;;;;;2.55;1.08;;;;;;;;;;5074466;28;20488;-39
2021/06/20 10:43:38;;;;;;;2.38;0.80;;;;;;;;;;5074749;28;20027;-40
2021/06/20 10:46:15;;;;;;;1.95;1.00;;;;;;;;;;5066236;28;20056;-37
2021/06/20 10:48:42;;;;;;;1.95;0.95;;;;;;;;;;5054341;28;20124;-41
2021/06/20 10:51:16;;;;;;;1.45;0.95;;;;;;;;;;5054581;28;20029;-40
2021/06/20 10:53:44;;;;;;;1.65;1.05;;;;;;;;;;5054038;28;20462;-41
2021/06/20 10:56:21;;;;;;;2.30;1.38;;;;;;;;;;5054373;28;20036;-39
2021/06/20 10:58:49;;;;;;;3.72;1.20;;;;;;;;;;5052804;28;20020;-40
2021/06/20 11:01:17;;;;;;;1.42;0.80;;;;;;;;;;5054657;28;20036;-38
2021/06/20 11:04:02;;;;;;;2.28;1.05;;;;;;;;;;5053707;28;20028;-40
2021/06/20 11:06:29;;;;;;;1.95;1.05;;;;;;;;;;5054228;28;20500;-39
2021/06/20 11:08:58;;;;;;;1.48;1.02;;;;;;;;;;5053833;28;20021;-39
2021/06/20 11:11:25;;;;;;;2.03;1.30;;;;;;;;;;5054523;28;20528;-39
2021/06/20 11:13:55;;;;;;;1.40;1.00;;;;;;;;;;5053284;28;20033;-38
2021/06/20 11:16:27;;;;;;;1.95;1.00;;;;;;;;;;5053504;28;20434;-35
2021/06/20 11:19:06;;;;;;;0.95;0.70;;;;;;;;;;5053394;28;20021;-36
2021/06/20 11:21:38;;;;;;;1.88;1.20;;;;;;;;;;5054167;28;20426;-39
2021/06/20 11:24:06;;;;;;;1.77;1.10;;;;;;;;;;5053541;28;20100;-35
2021/06/20 11:26:33;;;;;;;2.17;1.35;;;;;;;;;;5053627;28;20540;-39
2021/06/20 11:29:01;;;;;;;4.20;1.02;;;;;;;;;;5053278;28;20029;-37
2021/06/20 11:31:28;;;;;;;1.40;0.93;;;;;;;;;;5053733;28;20033;-37
2021/06/20 11:33:56;;;;;;;1.17;0.90;;;;;;;;;;5053674;28;20021;-39
2021/06/20 11:36:24;;;;;;;2.13;1.15;;;;;;;;;;5053156;28;20029;-39
2021/06/20 11:38:51;;;;;;;2.50;1.13;;;;;;;;;;5053240;28;20373;-38
2021/06/20 11:41:18;;;;;;;2.85;0.95;;;;;;;;;;5053030;28;20456;-38
2021/06/20 11:44:01;;;;;;;2.92;1.15;;;;;;;;;;5053384;28;20017;-38
2021/06/20 11:46:30;;;;;;;1.85;1.10;;;;;;;;;;5053112;28;20457;-38
2021/06/20 11:49:01;;;;;;;1.30;0.90;;;;;;;;;;5053250;28;20056;-38
2021/06/20 11:51:33;;;;;;;1.38;0.98;;;;;;;;;;5053070;28;20074;-39
2021/06/20 11:54:25;;;;;;;1.77;1.02;;;;;;;;;;5051930;28;20043;-36
2021/06/20 11:56:52;;;;;;;;;;;;;;;;;;5050128;28;20668;-38
2021/06/20 11:59:51;;;;;;;1.75;1.00;;;;;;;;;;5053263;28;19957;-39
2021/06/20 12:02:18;;;;;;;2.35;1.05;;;;;;;;;;4989198;28;20401;-38
2021/06/20 12:04:46;;;;;;;1.65;1.00;;;;;;;;;;5015377;28;20755;-40
2021/06/20 12:07:13;;;;;;;1.77;1.02;;;;;;;;;;5032673;28;20024;-39
2021/06/20 12:09:41;;;;;;;2.08;0.90;;;;;;;;;;5032920;28;20108;-37
2021/06/20 12:12:10;;;;;;;1.20;1.00;;;;;;;;;;5032650;28;20044;-40
2021/06/20 12:14:38;;;;;;;2.78;1.10;;;;;;;;;;5033281;28;20045;-40
2021/06/20 12:17:06;;;;;;;1.88;1.25;;;;;;;;;;5032679;28;20022;-36
2021/06/20 12:19:37;;;;;;;1.73;1.10;;;;;;;;;;5032559;28;20072;-39
2021/06/20 12:22:05;;;;;;;1.80;1.00;;;;;;;;;;5033137;28;20030;-38
2021/06/20 12:24:37;;;;;;;1.30;0.80;;;;;;;;;;5032192;28;20021;-41
2021/06/20 12:27:04;;;;;;;2.55;1.05;;;;;;;;;;5032749;28;20064;-42
2021/06/20 12:29:32;;;;;;;2.13;1.10;;;;;;;;;;5033324;28;20049;-39
2021/06/20 12:32:00;;;;;;;1.15;0.80;;;;;;;;;;5052278;28;20036;-36
2021/06/20 12:34:28;;;;;;;1.77;1.10;;;;;;;;;;5051336;28;20462;-36
2021/06/20 12:37:01;;;;;;;1.80;0.98;;;;;;;;;;5052686;28;20027;-38
2021/06/20 12:39:39;;;;;;;2.58;1.10;;;;;;;;;;5052110;28;20040;-33
2021/06/20 12:42:06;;;;;;;1.80;0.93;;;;;;;;;;5052002;28;20473;-38
2021/06/20 12:44:47;;;;;;;1.60;0.90;;;;;;;;;;5051150;28;20100;-40
2021/06/20 12:47:14;;;;;;;2.20;1.27;;;;;;;;;;5052194;28;20047;-41
2021/06/20 12:49:45;;;;;;;4.05;1.27;;;;;;;;;;5051004;28;20124;-37
2021/06/20 12:52:12;;;;;;;5.10;1.10;;;;;;;;;;5051929;28;20033;-38
2021/06/20 12:54:55;;;;;;;1.92;0.98;;;;;;;;;;5050593;28;20135;-38
2021/06/20 12:57:23;;;;;;;7.95;1.10;;;;;;;;;;5050273;28;20025;-35
2021/06/20 12:59:50;;;;;;;8.40;1.40;;;;;;;;;;5051631;28;20021;-35
2021/06/20 13:02:22;;;;;;;9.38;1.40;;;;;;;;;;5051947;28;20071;-37
2021/06/20 13:04:49;;;;;;;21.08;1.65;;;;;;;;;;5047778;28;20091;-35
2021/06/20 13:07:29;;;;;;;4.78;1.60;;;;;;;;;;5050410;28;20107;-38
2021/06/20 13:09:56;;;;;;;9.23;1.90;;;;;;;;;;5051472;28;20390;-36
2021/06/20 13:12:23;;;;;;;4.15;1.77;;;;;;;;;;5050582;28;20087;-39
2021/06/20 13:14:50;;;;;;;9.75;1.40;;;;;;;;;;5051553;28;20017;-38
2021/06/20 13:17:17;;;;;;;8.07;1.40;;;;;;;;;;5051256;28;20028;-38
2021/06/20 13:19:44;;;;;;;7.97;1.38;;;;;;;;;;5051177;28;20017;-37
2021/06/20 13:22:11;;;;;;;16.88;2.28;;;;;;;;;;5049444;28;20111;-37
2021/06/20 13:24:38;;;;;;;18.05;2.40;;;;;;;;;;5049997;28;20123;-39
2021/06/20 13:27:05;;;;;;;6.88;2.67;;;;;;;;;;5050116;28;20048;-36
2021/06/20 13:29:33;;;;;;;6.57;1.98;;;;;;;;;;5050831;28;20044;-36
2021/06/20 13:32:00;;;;;;;9.50;2.35;;;;;;;;;;5051073;28;20036;-39
2021/06/20 13:34:28;;;;;;;6.65;2.03;;;;;;;;;;5050637;28;20051;-39
2021/06/20 13:36:57;;;;;;;6.90;1.95;;;;;;;;;;5050827;28;20389;-38
2021/06/20 13:39:24;;;;;;;8.07;1.80;;;;;;;;;;5050821;28;20025;-41
2021/06/20 13:41:51;;;;;;;6.63;2.10;;;;;;;;;;5051841;28;20465;-37
2021/06/20 13:44:18;;;;;;;4.72;2.38;;;;;;;;;;5050742;28;20036;-39
2021/06/20 13:46:49;;;;;;;7.53;2.20;;;;;;;;;;5051305;28;20500;-35
2021/06/20 13:49:16;;;;;;;5.18;1.92;;;;;;;;;;5051396;28;20053;-36
2021/06/20 13:51:43;;;;;;;6.88;1.85;;;;;;;;;;5051262;28;20037;-40
2021/06/20 13:54:11;;;;;;;3.72;1.80;;;;;;;;;;5051706;28;20025;-34
2021/06/20 13:56:38;;;;;;;8.27;2.05;;;;;;;;;;5050914;28;20025;-38
2021/06/20 13:59:05;;;;;;;6.03;2.05;;;;;;;;;;5051089;28;20017;-35
2021/06/20 14:01:32;;;;;;;4.70;2.08;;;;;;;;;;5050892;28;20468;-40
2021/06/20 14:03:59;;;;;;;7.93;2.17;;;;;;;;;;5051070;28;20027;-39
2021/06/20 14:06:26;;;;;;;4.43;1.75;;;;;;;;;;5050769;28;20507;-41
2021/06/20 14:08:53;;;;;;;4.93;2.22;;;;;;;;;;5050792;28;20420;-39
2021/06/20 14:11:20;;;;;;;3.85;1.70;;;;;;;;;;5050783;28;20059;-36
2021/06/20 14:13:47;;;;;;;8.73;2.05;;;;;;;;;;5051595;28;20021;-40
2021/06/20 14:16:14;;;;;;;2.70;1.73;;;;;;;;;;5051068;28;20029;-41
2021/06/20 14:18:41;;;;;;;4.63;1.90;;;;;;;;;;5050714;28;20032;-41
2021/06/20 14:21:08;;;;;;;4.03;1.80;;;;;;;;;;5051041;28;20033;-39
2021/06/20 14:23:35;;;;;;;5.20;2.10;;;;;;;;;;5050743;28;20017;-39
2021/06/20 14:26:02;;;;;;;5.85;2.05;;;;;;;;;;5051154;28;20033;-36
2021/06/20 14:28:29;;;;;;;4.78;2.28;;;;;;;;;;5050959;28;20021;-36
2021/06/20 14:30:56;;;;;;;4.20;1.83;;;;;;;;;;5050808;28;20087;-34
2021/06/20 14:33:23;;;;;;;4.47;1.83;;;;;;;;;;5054393;28;20025;-34
2021/06/20 14:35:50;;;;;;;2.80;1.73;;;;;;;;;;5054303;28;20032;-37
2021/06/20 14:38:17;;;;;;;6.65;2.10;;;;;;;;;;5054458;28;20021;-37
2021/06/20 14:40:44;;;;;;;3.85;1.98;;;;;;;;;;5054054;28;20485;-38
2021/06/20 14:43:11;;;;;;;8.30;2.28;;;;;;;;;;5054757;28;20025;-38
2021/06/20 14:45:38;;;;;;;6.78;2.63;;;;;;;;;;5053971;28;20029;-39
2021/06/20 14:48:06;;;;;;;5.45;2.78;;;;;;;;;;5054335;28;20119;-34